Time;durP1;ratioP1;P1;durP2;ratioP2;P2;SDS_P1;SDS_P2;PMS_P1;PMS_P2;Temp;Humidity;BMP_temperature;BMP_pressure;BME280_temperature;BME280_humidity;BME280_pressure;Samples;Min_cycle;Max_cycle;Signal;HPM_P1;HPM_P2
2022/01/22 00:01:37;;;;;;;8.68;5.50;;;;;;;3.59;91.24;103299.91;5022320;28;20091;-78
2022/01/22 00:04:02;;;;;;;9.48;5.50;;;;;;;3.58;91.33;103307.06;5011411;28;20036;-77
2022/01/22 00:06:28;;;;;;;11.18;5.68;;;;;;;3.60;91.53;103304.38;5014862;28;20469;-77
2022/01/22 00:08:53;;;;;;;14.23;5.90;;;;;;;3.60;91.24;103306.19;5010993;28;20072;-78
2022/01/22 00:11:18;;;;;;;13.70;6.55;;;;;;;3.55;91.24;103290.06;5014351;28;20028;-77
2022/01/22 00:16:28;;;;;;;22.02;7.00;;;;;;;3.58;91.34;103296.28;5019032;28;20518;-77
2022/01/22 00:18:53;;;;;;;14.43;6.88;;;;;;;3.60;91.43;103295.41;5021087;28;20108;-79
2022/01/22 00:21:18;;;;;;;12.27;6.78;;;;;;;3.61;91.74;103289.13;5041949;28;20124;-78
2022/01/22 00:23:54;;;;;;;16.15;6.13;;;;;;;3.61;91.47;103294.50;5026211;28;20030;-77
2022/01/22 00:26:19;;;;;;;14.82;6.68;;;;;;;3.60;91.59;103288.22;5016541;28;20449;-79
2022/01/22 00:28:44;;;;;;;15.20;6.68;;;;;;;3.61;91.33;103291.81;5027051;28;20071;-78
2022/01/22 00:31:10;;;;;;;14.40;7.40;;;;;;;3.59;91.73;103275.69;5029241;28;20481;-76
2022/01/22 00:33:35;;;;;;;11.88;5.85;;;;;;;3.58;91.64;103273.88;5029263;28;20083;-78
2022/01/22 00:36:00;;;;;;;18.30;6.75;;;;;;;3.60;91.53;103272.09;5019899;28;20430;-76
2022/01/22 00:38:25;;;;;;;13.43;6.82;;;;;;;3.61;91.43;103271.19;5025887;28;20029;-77
2022/01/22 00:40:51;;;;;;;16.88;6.47;;;;;;;3.62;91.38;103272.06;5013683;28;20032;-77
2022/01/22 00:43:18;;;;;;;19.55;5.88;;;;;;;3.60;91.69;103276.56;5020044;28;20835;-77
2022/01/22 00:45:43;;;;;;;13.20;6.30;;;;;;;3.63;91.53;103273.84;5023916;28;20026;-77
2022/01/22 00:48:08;;;;;;;15.30;6.20;;;;;;;3.57;91.48;103267.59;5029641;28;20036;-75
2022/01/22 00:50:34;;;;;;;13.00;7.13;;;;;;;3.62;91.71;103266.69;5028773;28;20480;-75
2022/01/22 00:52:59;;;;;;;11.63;6.25;;;;;;;3.63;91.58;103265.78;5025880;28;20044;-78
2022/01/22 00:55:24;;;;;;;18.25;6.43;;;;;;;3.61;91.81;103262.22;5023817;28;20029;-78
2022/01/22 00:57:50;;;;;;;12.38;6.13;;;;;;;3.63;91.55;103273.84;5016550;28;20037;-76
2022/01/22 01:00:17;;;;;;;11.40;5.95;;;;;;;3.62;91.58;103274.75;5018308;28;20029;-76
2022/01/22 01:02:44;;;;;;;12.32;5.75;;;;;;;3.63;91.68;103277.44;5028754;28;20053;-77
2022/01/22 01:05:12;;;;;;;15.88;6.50;;;;;;;3.65;91.69;103286.41;5012101;28;20021;-77
2022/01/22 01:07:38;;;;;;;13.73;6.22;;;;;;;3.66;91.57;103290.00;5014245;28;20028;-77
2022/01/22 01:10:06;;;;;;;16.35;6.75;;;;;;;3.65;91.58;103290.91;5010208;28;20022;-77
2022/01/22 01:12:31;;;;;;;14.68;5.93;;;;;;;3.64;91.71;103292.72;5013540;28;20474;-77
2022/01/22 01:15:21;;;;;;;11.43;6.38;;;;;;;3.65;91.65;103285.53;5013902;28;20024;-78
2022/01/22 01:18:04;;;;;;;18.92;6.85;;;;;;;3.68;91.55;103288.19;5022797;28;20025;-78
2022/01/22 01:34:11;;;;;;;10.10;6.22;;;;;;;3.71;91.75;103285.47;5017479;28;20036;-78
2022/01/22 01:36:38;;;;;;;10.98;6.93;;;;;;;3.70;92.02;103283.69;5028831;28;20083;-76
2022/01/22 01:39:07;;;;;;;16.88;7.65;;;;;;;3.68;91.83;103280.09;5009043;28;20112;-78
2022/01/22 01:43:58;;;;;;;13.45;8.60;;;;;;;3.70;92.26;103291.78;5024181;28;20119;-78
2022/01/22 01:46:25;;;;;;;16.17;6.90;;;;;;;3.71;91.79;103291.75;5025281;28;20036;-77
2022/01/22 01:48:51;;;;;;;17.27;7.70;;;;;;;3.69;92.04;103287.31;5028788;28;20032;-76
2022/01/22 01:51:16;;;;;;;15.32;7.95;;;;;;;3.73;92.00;103298.06;5025197;28;20532;-79
2022/01/22 01:53:59;;;;;;;20.25;8.23;;;;;;;3.72;92.11;103288.16;5022111;28;20052;-78
2022/01/22 01:59:15;;;;;;;12.88;8.10;;;;;;;3.74;91.86;103291.75;5027030;28;20041;-77
2022/01/22 02:01:40;;;;;;;16.35;8.52;;;;;;;3.73;91.97;103276.50;5011532;28;20087;-78
2022/01/22 02:04:09;;;;;;;16.60;8.77;;;;;;;3.75;92.25;103279.19;5013888;28;20026;-78
2022/01/22 02:06:34;;;;;;;15.60;9.25;;;;;;;3.75;92.51;103279.19;5018753;28;20037;-77
2022/01/22 02:09:00;;;;;;;16.15;9.35;;;;;;;3.74;92.43;103280.09;5014822;28;20432;-76
2022/01/22 02:11:27;;;;;;;15.90;8.75;;;;;;;3.74;92.12;103278.28;5020761;28;20025;-77
2022/01/22 02:14:05;;;;;;;17.92;8.65;;;;;;;3.75;92.42;103276.50;5021416;28;20054;-77
2022/01/22 02:24:50;;;;;;;18.35;9.48;;;;;;;3.78;92.55;103288.16;5008337;28;20405;-75
2022/01/22 02:27:16;;;;;;;16.10;9.57;;;;;;;3.77;92.42;103274.69;5007929;28;20486;-78
2022/01/22 02:29:42;;;;;;;22.80;12.00;;;;;;;3.78;92.45;103269.31;5019153;28;20108;-77
2022/01/22 02:32:39;;;;;;;17.38;11.00;;;;;;;3.79;92.69;103272.88;5015029;28;20026;-77
2022/01/22 02:35:02;;;;;;;24.42;11.48;;;;;;;3.80;93.21;103271.97;5021368;28;20037;-78
2022/01/22 02:37:34;;;;;;;25.40;11.07;;;;;;;3.79;93.11;103284.53;5026600;28;20108;-78
2022/01/22 02:40:06;;;;;;;26.83;12.70;;;;;;;3.80;93.11;103283.63;5023583;28;20037;-78
2022/01/22 02:42:34;;;;;;;33.17;14.27;;;;;;;3.79;93.27;103280.97;5013756;28;20448;-78
2022/01/22 02:44:59;;;;;;;20.77;13.15;;;;;;;3.76;93.42;103273.78;5021812;28;20037;-76
2022/01/22 02:47:25;;;;;;;23.80;12.43;;;;;;;3.77;93.72;103275.56;5024682;28;20108;-78
2022/01/22 02:49:51;;;;;;;24.15;12.80;;;;;;;3.76;93.76;103275.59;5028276;28;20389;-76
2022/01/22 02:52:17;;;;;;;22.13;12.13;;;;;;;3.77;93.72;103277.38;5013631;28;20102;-77
2022/01/22 02:54:44;;;;;;;24.85;12.48;;;;;;;3.76;93.73;103272.91;5024878;28;20044;-77
2022/01/22 02:57:10;;;;;;;24.13;12.75;;;;;;;3.74;93.94;103275.59;5016555;28;20109;-78
2022/01/22 02:59:36;;;;;;;31.20;13.40;;;;;;;3.74;93.93;103272.03;5021478;28;20316;-78
2022/01/22 03:02:03;;;;;;;28.08;13.63;;;;;;;3.75;94.06;103280.06;5007779;28;20030;-78
2022/01/22 03:04:29;;;;;;;26.58;14.05;;;;;;;3.76;93.97;103287.25;5008557;28;20026;-78
2022/01/22 03:06:54;;;;;;;25.55;13.25;;;;;;;3.75;94.19;103279.19;5007419;28;20030;-76
2022/01/22 03:09:27;;;;;;;28.15;14.02;;;;;;;3.75;94.04;103284.56;5017877;28;20061;-77
2022/01/22 03:12:19;;;;;;;26.90;13.05;;;;;;;3.75;93.90;103288.16;5025579;28;20037;-77
2022/01/22 03:22:25;;;;;;;23.63;12.60;;;;;;;3.74;94.24;103278.28;5010559;28;20034;-77
2022/01/22 03:27:34;;;;;;;28.05;13.32;;;;;;;3.73;94.29;103278.28;5024795;28;20076;-77
2022/01/22 03:30:00;;;;;;;26.33;13.35;;;;;;;3.73;94.30;103283.66;5018713;28;20446;-75
2022/01/22 03:32:30;;;;;;;30.30;13.52;;;;;;;3.75;94.44;103289.94;5022560;28;20060;-77
2022/01/22 03:35:08;;;;;;;27.30;13.55;;;;;;;3.77;94.27;103293.53;5030725;28;20116;-76
2022/01/22 03:37:34;;;;;;;28.67;14.82;;;;;;;3.74;94.61;103280.09;5025998;28;20030;-77
2022/01/22 03:39:59;;;;;;;28.42;14.00;;;;;;;3.76;94.07;103280.97;5019958;28;20060;-79
2022/01/22 03:42:24;;;;;;;31.92;14.20;;;;;;;3.77;94.66;103288.13;5028134;28;20033;-79
2022/01/22 03:44:50;;;;;;;31.65;13.90;;;;;;;3.76;94.40;103286.34;5026183;28;20084;-77
2022/01/22 03:47:15;;;;;;;24.20;15.30;;;;;;;3.76;94.40;103280.97;5028597;28;20031;-77
2022/01/22 03:49:40;;;;;;;32.55;14.55;;;;;;;3.74;94.60;103290.88;5018714;28;20044;-78
2022/01/22 03:52:06;;;;;;;25.65;13.68;;;;;;;3.76;94.64;103294.44;5024851;28;20084;-76
2022/01/22 03:54:32;;;;;;;30.95;15.32;;;;;;;3.74;94.46;103286.38;5012224;28;20076;-78
2022/01/22 03:56:57;;;;;;;24.13;13.88;;;;;;;3.76;94.81;103289.94;5019243;28;20029;-78
2022/01/22 03:59:22;;;;;;;36.03;15.63;;;;;;;3.76;94.86;103286.34;5028955;28;20045;-78
2022/01/22 04:04:29;;;;;;;31.35;16.08;;;;;;;3.79;94.84;103286.34;5031832;28;20034;-78
2022/01/22 04:09:43;;;;;;;29.52;14.23;;;;;;;3.81;94.82;103289.91;5023347;28;19947;-78
2022/01/22 04:12:11;;;;;;;36.92;15.63;;;;;;;3.80;94.81;103289.03;5030253;28;20029;-78
2022/01/22 04:14:44;;;;;;;29.20;14.77;;;;;;;3.79;95.07;103284.53;5019772;28;20401;-78
2022/01/22 04:25:11;;;;;;;30.67;16.30;;;;;;;3.81;95.09;103276.44;5023683;28;20106;-77
2022/01/22 04:27:36;;;;;;;45.97;18.27;;;;;;;3.82;95.49;103286.31;5026995;28;20396;-76
2022/01/22 04:30:02;;;;;;;42.60;18.15;;;;;;;3.84;95.38;103280.03;5026055;28;20029;-76
2022/01/22 04:32:30;;;;;;;34.72;17.80;;;;;;;3.83;95.55;103286.31;5035927;28;20064;-78
2022/01/22 04:34:56;;;;;;;41.42;18.73;;;;;;;3.84;95.59;103284.53;5021956;28;20480;-77
2022/01/22 04:37:24;;;;;;;37.72;18.83;;;;;;;3.85;95.42;103280.91;5030264;28;20064;-76
2022/01/22 04:39:49;;;;;;;38.90;19.02;;;;;;;3.86;95.51;103282.72;5018427;28;20492;-78
2022/01/22 04:42:15;;;;;;;34.97;17.00;;;;;;;3.86;95.44;103276.44;5023119;28;20029;-77
2022/01/22 04:45:06;;;;;;;42.50;18.05;;;;;;;3.88;95.64;103289.00;5029386;28;20131;-78
2022/01/22 04:47:46;;;;;;;39.95;17.52;;;;;;;3.83;95.46;103271.97;5028061;28;20025;-76
2022/01/22 04:55:38;;;;;;;39.20;19.10;;;;;;;3.93;95.64;103294.34;5016313;28;20037;-77
2022/01/22 04:58:05;;;;;;;40.35;17.10;;;;;;;3.91;95.94;103285.38;5021172;28;20052;-78
2022/01/22 05:00:33;;;;;;;39.35;19.60;;;;;;;3.93;95.83;103289.88;5024577;28;20087;-78
2022/01/22 05:02:59;;;;;;;43.85;19.58;;;;;;;3.92;96.01;103284.50;5030152;28;20092;-78
2022/01/22 05:05:24;;;;;;;40.95;19.40;;;;;;;3.94;95.97;103294.34;5027508;28;20045;-77
2022/01/22 05:07:50;;;;;;;41.10;20.17;;;;;;;3.96;95.74;103297.00;5014869;28;20029;-77
2022/01/22 05:10:16;;;;;;;41.00;18.83;;;;;;;3.95;95.77;103282.66;5027037;28;20420;-75
2022/01/22 05:12:41;;;;;;;43.63;21.13;;;;;;;3.96;95.84;103286.25;5015236;28;20465;-77
2022/01/22 05:15:07;;;;;;;44.00;20.05;;;;;;;3.95;95.85;103284.47;5015496;28;20477;-77
2022/01/22 05:17:36;;;;;;;40.22;20.17;;;;;;;3.97;95.96;103282.66;5023111;28;20623;-77
2022/01/22 05:20:09;;;;;;;47.30;20.88;;;;;;;3.96;95.82;103279.06;5026752;28;20040;-78
2022/01/22 05:25:23;;;;;;;37.00;17.75;;;;;;;3.97;95.98;103282.66;5016314;28;20596;-77
2022/01/22 05:38:05;;;;;;;47.63;21.08;;;;;;;3.99;95.97;103267.38;5029360;28;20068;-77
2022/01/22 05:40:30;;;;;;;41.17;20.08;;;;;;;3.98;96.16;103276.38;5015704;28;20492;-77
2022/01/22 05:42:56;;;;;;;42.38;19.80;;;;;;;4.01;95.75;103284.41;5023324;28;20029;-77
2022/01/22 05:45:21;;;;;;;41.80;18.83;;;;;;;4.00;96.08;103283.53;5009884;28;20037;-75
2022/01/22 05:47:47;;;;;;;51.08;22.23;;;;;;;4.01;95.75;103277.25;5019555;28;20097;-77
2022/01/22 05:50:25;;;;;;;46.83;21.95;;;;;;;4.01;95.94;103279.94;5027986;28;20044;-78
2022/01/22 05:52:58;;;;;;;38.58;19.67;;;;;;;4.02;96.24;103281.72;5019395;28;20393;-76
2022/01/22 05:55:41;;;;;;;50.17;21.20;;;;;;;4.01;95.91;103273.63;5026497;28;20389;-77
2022/01/22 06:00:52;;;;;;;43.83;19.73;;;;;;;4.03;95.88;103279.94;5026944;28;19920;-77
2022/01/22 06:03:18;;;;;;;42.72;21.58;;;;;;;4.03;95.93;103282.63;5029113;28;20083;-77
2022/01/22 06:05:43;;;;;;;42.60;19.27;;;;;;;4.00;96.00;103278.13;5013423;28;20025;-78
2022/01/22 06:08:08;;;;;;;42.25;20.70;;;;;;;4.03;96.18;103286.22;5016060;28;20996;-77
2022/01/22 06:10:34;;;;;;;47.85;20.85;;;;;;;4.04;96.06;103290.69;5020514;28;20037;-78
2022/01/22 06:13:15;;;;;;;45.50;21.42;;;;;;;4.06;96.39;103293.41;5014180;28;20048;-77
2022/01/22 06:15:40;;;;;;;43.65;20.05;;;;;;;4.05;96.02;103292.47;5015370;28;20029;-77
2022/01/22 06:18:06;;;;;;;44.67;20.85;;;;;;;4.06;96.32;103290.69;5027500;28;20013;-78
2022/01/22 06:20:32;;;;;;;44.08;20.25;;;;;;;4.07;96.35;103295.19;5027628;28;20039;-76
2022/01/22 06:22:57;;;;;;;44.53;22.05;;;;;;;4.06;96.36;103293.41;5025736;28;20038;-78
2022/01/22 06:25:23;;;;;;;42.28;18.90;;;;;;;4.08;96.49;103291.56;5025629;28;20546;-78
2022/01/22 06:27:48;;;;;;;54.63;20.35;;;;;;;4.09;96.39;103288.84;5025755;28;20495;-76
2022/01/22 06:30:13;;;;;;;57.03;20.00;;;;;;;4.08;96.42;103286.19;5022572;28;20041;-77
2022/01/22 06:32:39;;;;;;;45.58;19.98;;;;;;;4.07;96.19;103289.78;5020829;28;20021;-78
2022/01/22 06:35:04;;;;;;;39.20;18.88;;;;;;;4.07;96.31;103285.28;5015016;28;20558;-78
2022/01/22 06:37:30;;;;;;;43.47;20.10;;;;;;;4.10;96.64;103292.44;5028012;28;20025;-79
2022/01/22 06:42:33;;;;;;;44.40;20.00;;;;;;;4.13;96.37;103294.22;5021669;28;20037;-77
2022/01/22 06:45:00;;;;;;;47.55;20.17;;;;;;;4.11;96.31;103296.94;5012969;28;20069;-77
2022/01/22 06:47:27;;;;;;;43.15;18.00;;;;;;;4.12;96.25;103303.22;5014994;28;20029;-78
2022/01/22 06:49:53;;;;;;;47.28;20.05;;;;;;;4.12;95.97;103306.81;5028089;28;20024;-77
2022/01/22 06:52:18;;;;;;;43.33;18.45;;;;;;;4.12;96.24;103298.72;5020350;28;20026;-78
2022/01/22 06:54:44;;;;;;;44.63;19.40;;;;;;;4.14;96.36;103315.75;5009782;28;20080;-77
2022/01/22 06:57:10;;;;;;;39.85;18.15;;;;;;;4.15;96.41;103309.50;5017864;28;20025;-77
2022/01/22 06:59:35;;;;;;;36.97;17.88;;;;;;;4.17;96.34;103315.75;5026071;28;20048;-77
2022/01/22 07:02:01;;;;;;;42.08;17.90;;;;;;;4.17;96.30;103309.47;5025623;28;20041;-77
2022/01/22 07:04:26;;;;;;;40.70;19.42;;;;;;;4.17;96.09;103304.97;5024791;28;20022;-77
2022/01/22 07:06:52;;;;;;;40.50;18.00;;;;;;;4.21;96.31;103308.56;5027416;28;20021;-77
2022/01/22 07:09:17;;;;;;;37.95;17.63;;;;;;;4.23;96.40;103312.13;5016367;28;20031;-77
2022/01/22 07:11:42;;;;;;;45.13;17.17;;;;;;;4.26;96.24;103312.13;5023608;28;20021;-77
2022/01/22 07:14:07;;;;;;;36.92;16.95;;;;;;;4.28;96.13;103318.38;5024112;28;20385;-77
2022/01/22 07:16:33;;;;;;;38.28;16.83;;;;;;;4.30;96.20;103324.66;5021628;28;20026;-77
2022/01/22 07:19:02;;;;;;;37.22;16.35;;;;;;;4.30;96.25;103328.25;5026975;28;20653;-76
2022/01/22 07:21:30;;;;;;;36.92;16.08;;;;;;;4.29;96.04;103339.03;5023382;28;20030;-77
2022/01/22 07:26:27;;;;;;;38.53;15.35;;;;;;;4.30;95.95;103339.03;5019574;28;20061;-78
2022/01/22 07:28:52;;;;;;;35.28;16.48;;;;;;;4.31;95.98;103340.81;5022926;28;20061;-77
2022/01/22 07:31:20;;;;;;;37.30;17.02;;;;;;;4.31;96.13;103346.19;5023208;28;20029;-77
2022/01/22 07:33:46;;;;;;;41.58;17.08;;;;;;;4.34;96.17;103348.91;5022735;28;20417;-78
2022/01/22 07:36:12;;;;;;;35.85;16.02;;;;;;;4.34;96.16;103345.31;5024508;28;20080;-75
2022/01/22 07:38:39;;;;;;;33.05;15.35;;;;;;;4.35;96.18;103344.41;5024497;28;20025;-76
2022/01/22 07:41:06;;;;;;;43.80;16.98;;;;;;;4.37;96.33;103355.16;5022513;28;20021;-77
2022/01/22 07:43:32;;;;;;;42.08;16.73;;;;;;;4.35;95.88;103355.19;5021728;28;20034;-78
2022/01/22 07:45:57;;;;;;;34.30;16.27;;;;;;;4.35;95.85;103350.69;5023845;28;20087;-78
2022/01/22 07:48:22;;;;;;;36.47;16.63;;;;;;;4.35;96.10;103358.75;5015545;28;20394;-77
2022/01/22 07:50:48;;;;;;;36.75;16.33;;;;;;;4.34;96.12;103356.97;5017552;28;20022;-76
2022/01/22 07:53:13;;;;;;;40.72;17.63;;;;;;;4.34;96.35;103364.16;5009230;28;20033;-78
2022/01/22 07:55:39;;;;;;;35.25;15.90;;;;;;;4.37;96.32;103357.84;5016163;28;20582;-77
2022/01/22 07:58:04;;;;;;;36.30;16.30;;;;;;;4.38;96.06;103365.03;5024110;28;20056;-77
2022/01/22 08:00:29;;;;;;;38.30;17.48;;;;;;;4.38;95.89;103354.25;5014042;28;20033;-76
2022/01/22 08:02:55;;;;;;;40.00;17.50;;;;;;;4.38;96.17;103357.81;5026844;28;20036;-78
2022/01/22 08:05:20;;;;;;;34.15;15.95;;;;;;;4.40;95.89;103355.16;5023501;28;20029;-78
2022/01/22 08:07:45;;;;;;;33.10;16.40;;;;;;;4.43;96.07;103349.72;5023351;28;20045;-77
2022/01/22 08:10:12;;;;;;;35.78;17.48;;;;;;;4.43;95.92;103352.41;5025497;28;20025;-78
2022/01/22 08:12:39;;;;;;;33.72;17.35;;;;;;;4.46;96.36;103349.69;5017457;28;20482;-77
2022/01/22 08:15:06;;;;;;;42.33;17.75;;;;;;;4.45;96.22;103354.19;5020478;28;20026;-78
2022/01/22 08:17:31;;;;;;;37.55;16.40;;;;;;;4.48;96.33;103350.59;5010210;28;20068;-78
2022/01/22 08:19:57;;;;;;;36.35;15.82;;;;;;;4.47;96.17;103347.00;5010466;28;20030;-77
2022/01/22 08:22:22;;;;;;;41.95;16.95;;;;;;;4.50;96.04;103351.47;5010449;28;20084;-77
2022/01/22 08:24:50;;;;;;;36.55;17.92;;;;;;;4.53;96.21;103356.84;5011804;28;20022;-76
2022/01/22 08:27:31;;;;;;;37.20;16.15;;;;;;;4.55;96.04;103353.22;5019043;28;20106;-77
2022/01/22 08:29:57;;;;;;;38.67;16.42;;;;;;;4.58;96.06;103360.41;5026606;28;20026;-77
2022/01/22 08:37:32;;;;;;;33.35;14.23;;;;;;;4.64;96.12;103348.69;5026588;28;20567;-77
2022/01/22 08:39:57;;;;;;;35.17;14.82;;;;;;;4.67;96.36;103349.56;5021351;28;20037;-77
2022/01/22 08:42:24;;;;;;;39.15;15.00;;;;;;;4.67;95.72;103349.56;5007268;28;20987;-76
2022/01/22 08:44:49;;;;;;;33.58;15.25;;;;;;;4.69;95.78;103345.03;5022342;28;20029;-76
2022/01/22 08:47:15;;;;;;;32.40;15.57;;;;;;;4.73;95.82;103338.72;5012410;28;20375;-75
2022/01/22 08:49:41;;;;;;;31.88;14.32;;;;;;;4.75;95.89;103347.69;5016217;28;20021;-77
2022/01/22 08:52:11;;;;;;;30.42;14.05;;;;;;;4.77;95.70;103345.00;5009125;28;20048;-77
2022/01/22 08:54:37;;;;;;;33.35;15.02;;;;;;;4.78;95.39;103350.38;5015049;28;20032;-76
2022/01/22 08:57:03;;;;;;;34.00;14.18;;;;;;;4.81;95.40;103347.66;5012289;28;20537;-76
2022/01/22 08:59:28;;;;;;;39.03;15.82;;;;;;;4.87;95.63;103360.19;5018719;28;20482;-77
2022/01/22 09:01:54;;;;;;;30.17;13.50;;;;;;;4.89;95.42;103352.06;5018388;28;20652;-76
2022/01/22 09:04:19;;;;;;;36.45;14.18;;;;;;;4.91;95.16;103358.38;5008664;28;20030;-77
2022/01/22 09:06:45;;;;;;;37.22;14.93;;;;;;;4.95;95.07;103358.31;5009157;28;20018;-77
2022/01/22 09:09:12;;;;;;;34.20;14.20;;;;;;;4.98;94.79;103363.66;5020624;28;20031;-77
2022/01/22 09:11:39;;;;;;;30.02;13.18;;;;;;;4.99;94.67;103376.28;5015803;28;20053;-76
2022/01/22 09:14:07;;;;;;;26.92;13.15;;;;;;;5.02;95.24;103386.13;5010691;28;20032;-78
2022/01/22 09:16:33;;;;;;;26.52;12.23;;;;;;;5.05;94.74;103378.03;5008706;28;20036;-78
2022/01/22 09:19:05;;;;;;;32.17;13.60;;;;;;;5.09;95.02;103391.47;5025758;28;20021;-76
2022/01/22 09:21:34;;;;;;;24.77;12.13;;;;;;;5.10;94.50;103387.88;5025211;28;20022;-76
2022/01/22 09:24:00;;;;;;;28.63;12.73;;;;;;;5.15;94.38;103392.31;5018763;28;20373;-76
2022/01/22 09:26:26;;;;;;;28.92;12.93;;;;;;;5.16;94.56;103380.63;5012045;28;20025;-77
2022/01/22 09:28:52;;;;;;;23.67;12.23;;;;;;;5.20;94.74;103390.47;5022477;28;20060;-77
2022/01/22 09:31:17;;;;;;;30.75;13.27;;;;;;;5.22;94.36;103383.25;5011705;28;20180;-77
2022/01/22 09:33:44;;;;;;;28.13;12.23;;;;;;;5.25;94.49;103386.81;5009416;28;20022;-78
2022/01/22 09:36:09;;;;;;;25.85;10.85;;;;;;;5.25;94.41;103377.84;5009087;28;20029;-79
2022/01/22 09:38:34;;;;;;;29.40;12.85;;;;;;;5.31;94.31;103384.06;5007659;28;20017;-77
2022/01/22 09:41:00;;;;;;;24.58;11.93;;;;;;;5.32;94.27;103399.38;5023297;28;20030;-76
2022/01/22 09:43:26;;;;;;;20.88;11.65;;;;;;;5.35;94.15;103411.91;5008720;28;20025;-77
2022/01/22 09:45:51;;;;;;;33.88;13.13;;;;;;;5.37;94.01;103402.91;5008777;28;20113;-77
2022/01/22 09:48:16;;;;;;;33.10;12.30;;;;;;;5.40;93.97;103409.19;5023531;28;20021;-77
2022/01/22 09:50:42;;;;;;;25.50;12.35;;;;;;;5.44;93.99;103409.13;5022749;28;20028;-77
2022/01/22 09:53:07;;;;;;;29.35;12.68;;;;;;;5.46;93.70;103407.34;5017385;28;20677;-75
2022/01/22 09:55:32;;;;;;;25.20;12.07;;;;;;;5.49;94.13;103407.28;5009701;28;20021;-77
2022/01/22 09:57:58;;;;;;;23.77;12.82;;;;;;;5.53;93.88;103414.44;5009239;28;20042;-76
2022/01/22 10:00:25;;;;;;;29.75;14.18;;;;;;;5.56;93.50;103416.22;5010409;28;20075;-77
2022/01/22 10:02:55;;;;;;;25.92;12.70;;;;;;;5.62;93.54;103418.84;5008140;28;20074;-76
2022/01/22 10:05:39;;;;;;;51.30;13.52;;;;;;;5.63;93.13;103413.44;5009592;28;20030;-75
2022/01/22 10:08:38;;;;;;;21.13;12.05;;;;;;;5.69;93.88;103416.97;5014242;28;20396;-78
2022/01/22 10:11:15;;;;;;;27.85;13.18;;;;;;;5.67;93.43;103422.41;5015757;28;20037;-76
2022/01/22 10:13:52;;;;;;;28.88;13.73;;;;;;;5.66;93.14;103425.13;5022226;28;20087;-77
2022/01/22 10:16:34;;;;;;;28.00;13.13;;;;;;;5.68;93.07;103416.09;5022881;28;20029;-77
2022/01/22 10:19:20;;;;;;;22.95;11.40;;;;;;;5.69;93.02;103414.28;5017803;28;20032;-77
2022/01/22 10:22:04;;;;;;;31.38;11.82;;;;;;;5.70;93.04;103418.78;5008922;28;20109;-77
2022/01/22 10:24:58;;;;;;;24.15;13.25;;;;;;;5.73;93.31;103416.03;5007931;28;20041;-77
2022/01/22 10:27:46;;;;;;;27.63;12.65;;;;;;;5.74;93.38;103416.03;5007270;28;20093;-76
2022/01/22 10:30:11;;;;;;;23.48;11.43;;;;;;;5.76;92.87;103424.13;5009203;28;20029;-77
2022/01/22 10:32:46;;;;;;;27.13;12.13;;;;;;;5.75;92.58;103419.63;5008180;28;20041;-77
2022/01/22 10:35:19;;;;;;;21.90;11.45;;;;;;;5.77;92.70;103424.09;5008500;28;20041;-76
2022/01/22 10:37:45;;;;;;;;;;;;;;;5.81;93.08;103423.16;5007753;28;20040;-77
2022/01/22 10:40:27;;;;;;;23.98;12.15;;;;;;;5.80;92.61;103420.47;5032423;28;19917;-75
2022/01/22 10:43:22;;;;;;;23.45;11.85;;;;;;;5.80;92.70;103415.97;5009763;28;20428;-77
2022/01/22 10:46:51;;;;;;;21.80;11.23;;;;;;;5.81;92.60;103415.03;5012429;28;20113;-77
2022/01/22 10:49:00;;;;;;;23.63;11.75;;;;;;;5.81;92.50;103414.16;5022332;28;20041;-77
2022/01/22 10:51:27;;;;;;;28.48;12.50;;;;;;;5.81;92.36;103424.94;5008058;28;20433;-77
2022/01/22 10:54:01;;;;;;;21.35;11.07;;;;;;;5.79;92.34;103419.59;5016733;28;20026;-77
2022/01/22 10:56:29;;;;;;;22.92;11.95;;;;;;;5.80;92.47;103424.06;5022530;28;20034;-77
2022/01/22 10:59:07;;;;;;;20.58;11.93;;;;;;;5.81;92.64;103423.16;5022299;28;20041;-76
2022/01/22 11:01:47;;;;;;;23.65;12.50;;;;;;;5.82;92.62;103427.63;5008745;28;20034;-75
2022/01/22 11:04:15;;;;;;;24.40;12.70;;;;;;;5.81;92.27;103423.16;5026962;28;20033;-77
2022/01/22 11:06:54;;;;;;;31.00;13.10;;;;;;;5.82;92.58;103422.22;5015000;28;20030;-78
2022/01/22 11:09:20;;;;;;;30.02;12.70;;;;;;;5.81;92.47;103431.25;5008777;28;20024;-75
2022/01/22 11:11:46;;;;;;;25.10;13.52;;;;;;;5.81;92.74;103422.25;5021698;28;20030;-77
2022/01/22 11:14:12;;;;;;;24.83;12.90;;;;;;;5.82;92.35;103415.94;5018491;28;20025;-77
2022/01/22 11:16:40;;;;;;;25.35;12.98;;;;;;;5.84;92.70;103415.00;5018846;28;20032;-77
2022/01/22 11:19:10;;;;;;;22.83;12.75;;;;;;;5.82;92.36;103402.44;5021447;28;20021;-77
2022/01/22 11:21:44;;;;;;;28.38;12.25;;;;;;;5.84;92.75;103406.91;5023482;28;20041;-77
2022/01/22 11:24:11;;;;;;;22.40;11.70;;;;;;;5.84;92.57;103393.41;5023657;28;20022;-78
2022/01/22 11:26:38;;;;;;;26.00;12.93;;;;;;;5.87;92.58;103398.78;5022481;28;20025;-76
2022/01/22 11:29:04;;;;;;;23.42;12.10;;;;;;;5.88;92.19;103396.97;5027767;28;20029;-77
2022/01/22 11:31:31;;;;;;;33.08;13.63;;;;;;;5.89;92.49;103398.75;5018866;28;20030;-77
2022/01/22 11:33:59;;;;;;;29.00;13.48;;;;;;;5.92;92.94;103401.44;5021143;28;20460;-77
2022/01/22 11:36:31;;;;;;;24.45;12.32;;;;;;;5.92;92.74;103404.13;5020787;28;20021;-77
2022/01/22 11:38:58;;;;;;;25.55;13.02;;;;;;;5.95;92.87;103400.50;5023418;28;20827;-77
2022/01/22 11:41:24;;;;;;;29.00;13.65;;;;;;;5.98;92.79;103405.91;5019955;28;20107;-75
2022/01/22 11:44:05;;;;;;;20.45;12.45;;;;;;;5.98;92.11;103404.09;5015816;28;20033;-77
2022/01/22 11:47:05;;;;;;;24.70;13.00;;;;;;;5.99;92.38;103403.16;5006214;28;20030;-76
2022/01/22 11:49:31;;;;;;;36.03;15.40;;;;;;;6.01;92.42;103401.31;5009033;28;20436;-74
2022/01/22 11:52:12;;;;;;;31.40;14.63;;;;;;;6.02;92.47;103404.94;5022356;28;20095;-77
2022/01/22 11:54:59;;;;;;;31.25;15.52;;;;;;;6.02;92.54;103407.66;5026094;28;20030;-78
2022/01/22 11:57:27;;;;;;;27.15;15.13;;;;;;;5.98;91.89;103406.78;5010560;28;20025;-77
2022/01/22 12:00:23;;;;;;;35.78;14.10;;;;;;;6.01;92.00;103404.03;5011848;28;20540;-77
2022/01/22 12:03:15;;;;;;;36.95;15.40;;;;;;;6.04;92.50;103397.69;5010171;28;20057;-77
2022/01/22 12:05:49;;;;;;;28.50;15.60;;;;;;;6.04;92.06;103405.81;5012038;28;20040;-77
2022/01/22 12:08:15;;;;;;;32.40;15.13;;;;;;;6.02;91.85;103397.72;5017915;28;20366;-77
2022/01/22 12:10:42;;;;;;;32.42;15.35;;;;;;;6.03;91.82;103395.94;5025626;28;20044;-77
2022/01/22 12:16:17;;;;;;;31.95;15.15;;;;;;;6.07;91.77;103395.88;5016942;28;20410;-75
2022/01/22 12:18:57;;;;;;;34.92;15.65;;;;;;;6.05;91.84;103392.28;5017476;28;20024;-75
2022/01/22 12:21:37;;;;;;;32.22;15.65;;;;;;;6.06;91.95;103385.06;5029654;28;20028;-76
2022/01/22 12:24:06;;;;;;;37.33;16.27;;;;;;;6.07;91.89;103389.56;5018404;28;20632;-77
2022/01/22 12:26:46;;;;;;;42.15;17.40;;;;;;;6.06;91.91;103388.69;5014105;28;20489;-78
2022/01/22 12:29:34;;;;;;;29.35;16.17;;;;;;;6.09;92.28;103403.94;5012109;28;20041;-77
2022/01/22 12:32:18;;;;;;;31.20;16.80;;;;;;;6.06;91.85;103393.16;5013106;28;20026;-77
2022/01/22 12:35:18;;;;;;;33.25;16.23;;;;;;;6.08;92.30;103405.75;5021927;28;20055;-77
2022/01/22 12:37:49;;;;;;;29.50;16.27;;;;;;;6.05;91.53;103403.06;5021723;28;20392;-75
2022/01/22 12:40:28;;;;;;;31.40;15.32;;;;;;;6.05;92.21;103400.38;5010325;28;20033;-77
2022/01/22 12:43:05;;;;;;;36.75;16.05;;;;;;;6.05;92.19;103396.78;5015044;28;20362;-75
2022/01/22 12:45:32;;;;;;;31.55;16.13;;;;;;;6.03;91.84;103401.31;5021286;28;20069;-76
2022/01/22 12:47:57;;;;;;;34.40;15.07;;;;;;;6.00;91.70;103394.13;5028643;28;20052;-78
2022/01/22 12:50:25;;;;;;;39.70;16.95;;;;;;;5.98;91.91;103398.69;5030549;28;20052;-77
2022/01/22 12:52:52;;;;;;;30.73;16.35;;;;;;;5.99;92.38;103400.47;5029224;28;20079;-77
2022/01/22 12:55:22;;;;;;;32.22;16.42;;;;;;;5.98;92.07;103403.19;5025205;28;20035;-75
2022/01/22 12:57:47;;;;;;;39.15;16.58;;;;;;;5.98;92.46;103414.00;5016536;28;20026;-77